sensor_id;sensor_type;location;lat;lon;timestamp;pressure;altitude;pressure_sealevel;temperature;humidity
23118;BME280;11728;50.624;6.014;2023-04-23T00:02:15;97539.91;;;10.85;99.49
23118;BME280;11728;50.624;6.014;2023-04-23T00:07:36;97547.88;;;10.83;98.83
23118;BME280;11728;50.624;6.014;2023-04-23T00:12:57;97550.06;;;10.73;99.05
23118;BME280;11728;50.624;6.014;2023-04-23T00:18:18;97546.25;;;10.55;99.11
23118;BME280;11728;50.624;6.014;2023-04-23T00:23:39;97532.50;;;10.46;99.35
23118;BME280;11728;50.624;6.014;2023-04-23T00:29:00;97541.63;;;10.37;98.69
23118;BME280;11728;50.624;6.014;2023-04-23T00:34:21;97529.75;;;10.24;98.43
23118;BME280;11728;50.624;6.014;2023-04-23T00:39:43;97533.53;;;10.17;98.28
23118;BME280;11728;50.624;6.014;2023-04-23T00:45:05;97522.19;;;10.14;98.18
23118;BME280;11728;50.624;6.014;2023-04-23T00:50:28;97523.59;;;10.24;97.30
23118;BME280;11728;50.624;6.014;2023-04-23T00:55:49;97509.28;;;10.31;96.51
23118;BME280;11728;50.624;6.014;2023-04-23T01:01:10;97516.06;;;10.38;96.34
23118;BME280;11728;50.624;6.014;2023-04-23T01:06:32;97513.28;;;10.42;96.00
23118;BME280;11728;50.624;6.014;2023-04-23T01:11:53;97507.03;;;10.45;96.00
23118;BME280;11728;50.624;6.014;2023-04-23T01:17:14;97509.63;;;10.46;95.69
23118;BME280;11728;50.624;6.014;2023-04-23T01:22:37;97501.13;;;10.38;95.79
23118;BME280;11728;50.624;6.014;2023-04-23T01:27:58;97498.34;;;10.41;96.20
23118;BME280;11728;50.624;6.014;2023-04-23T01:33:19;97498.78;;;10.54;96.08
23118;BME280;11728;50.624;6.014;2023-04-23T01:38:40;97493.88;;;10.68;95.89
23118;BME280;11728;50.624;6.014;2023-04-23T01:44:01;97496.88;;;10.81;95.91
23118;BME280;11728;50.624;6.014;2023-04-23T01:49:22;97496.66;;;10.87;95.76
23118;BME280;11728;50.624;6.014;2023-04-23T01:54:43;97491.38;;;10.87;95.98
23118;BME280;11728;50.624;6.014;2023-04-23T02:00:06;97487.94;;;10.85;96.41
23118;BME280;11728;50.624;6.014;2023-04-23T02:05:28;97489.69;;;10.86;96.81
23118;BME280;11728;50.624;6.014;2023-04-23T02:10:49;97487.72;;;10.91;96.76
23118;BME280;11728;50.624;6.014;2023-04-23T02:16:10;97483.09;;;10.98;96.60
23118;BME280;11728;50.624;6.014;2023-04-23T02:21:32;97481.75;;;11.09;96.47
23118;BME280;11728;50.624;6.014;2023-04-23T02:26:53;97485.69;;;11.21;96.60
23118;BME280;11728;50.624;6.014;2023-04-23T02:32:14;97483.75;;;11.26;96.32
23118;BME280;11728;50.624;6.014;2023-04-23T02:37:35;97474.84;;;11.28;96.46
23118;BME280;11728;50.624;6.014;2023-04-23T02:42:56;97473.78;;;11.32;96.65
23118;BME280;11728;50.624;6.014;2023-04-23T02:48:17;97485.75;;;11.42;96.42
23118;BME280;11728;50.624;6.014;2023-04-23T02:53:38;97475.72;;;11.50;95.83
23118;BME280;11728;50.624;6.014;2023-04-23T02:58:59;97479.22;;;11.52;96.13
23118;BME280;11728;50.624;6.014;2023-04-23T03:04:20;97473.03;;;11.53;95.98
23118;BME280;11728;50.624;6.014;2023-04-23T03:09:42;97481.69;;;11.56;95.98
23118;BME280;11728;50.624;6.014;2023-04-23T03:15:03;97472.88;;;11.56;95.85
23118;BME280;11728;50.624;6.014;2023-04-23T03:20:24;97469.25;;;11.58;95.91
23118;BME280;11728;50.624;6.014;2023-04-23T03:25:45;97481.53;;;11.59;96.21
23118;BME280;11728;50.624;6.014;2023-04-23T03:31:06;97482.03;;;11.69;95.87
23118;BME280;11728;50.624;6.014;2023-04-23T03:36:26;97478.44;;;11.71;95.81
23118;BME280;11728;50.624;6.014;2023-04-23T03:41:47;97474.72;;;11.75;95.92
23118;BME280;11728;50.624;6.014;2023-04-23T03:47:09;97468.34;;;11.81;96.02
23118;BME280;11728;50.624;6.014;2023-04-23T03:52:29;97458.78;;;11.77;95.99
23118;BME280;11728;50.624;6.014;2023-04-23T03:57:50;97464.31;;;11.71;96.34
23118;BME280;11728;50.624;6.014;2023-04-23T04:03:11;97457.50;;;11.65;96.76
23118;BME280;11728;50.624;6.014;2023-04-23T04:08:32;97456.47;;;11.69;97.06
23118;BME280;11728;50.624;6.014;2023-04-23T04:13:52;97465.25;;;11.70;97.12
23118;BME280;11728;50.624;6.014;2023-04-23T04:19:13;97465.25;;;11.70;97.47
23118;BME280;11728;50.624;6.014;2023-04-23T04:24:34;97459.97;;;11.70;97.65
23118;BME280;11728;50.624;6.014;2023-04-23T04:29:55;97460.09;;;11.67;97.74
23118;BME280;11728;50.624;6.014;2023-04-23T04:35:15;97473.19;;;11.70;98.02
23118;BME280;11728;50.624;6.014;2023-04-23T04:40:36;97466.97;;;11.71;97.76
23118;BME280;11728;50.624;6.014;2023-04-23T04:45:57;97467.78;;;11.73;98.13
23118;BME280;11728;50.624;6.014;2023-04-23T04:51:21;97474.66;;;11.77;97.91
23118;BME280;11728;50.624;6.014;2023-04-23T04:56:42;97465.53;;;11.84;97.71
23118;BME280;11728;50.624;6.014;2023-04-23T05:02:03;97467.81;;;11.93;97.32
23118;BME280;11728;50.624;6.014;2023-04-23T05:07:23;97461.44;;;11.98;97.28
23118;BME280;11728;50.624;6.014;2023-04-23T05:12:44;97455.06;;;12.02;97.12
23118;BME280;11728;50.624;6.014;2023-04-23T05:18:05;97461.78;;;12.11;97.03
23118;BME280;11728;50.624;6.014;2023-04-23T05:23:26;97467.44;;;12.23;96.47
23118;BME280;11728;50.624;6.014;2023-04-23T05:28:46;97472.53;;;12.47;95.80
23118;BME280;11728;50.624;6.014;2023-04-23T05:34:07;97468.06;;;12.48;95.80
23118;BME280;11728;50.624;6.014;2023-04-23T05:39:28;97475.81;;;12.52;95.96
23118;BME280;11728;50.624;6.014;2023-04-23T05:44:49;97473.59;;;12.63;95.89
23118;BME280;11728;50.624;6.014;2023-04-23T05:50:10;97481.47;;;12.65;95.88
23118;BME280;11728;50.624;6.014;2023-04-23T05:55:31;97479.81;;;12.62;95.97
23118;BME280;11728;50.624;6.014;2023-04-23T06:00:51;97474.34;;;12.65;95.70
23118;BME280;11728;50.624;6.014;2023-04-23T06:06:13;97476.69;;;12.73;95.89
23118;BME280;11728;50.624;6.014;2023-04-23T06:11:34;97472.84;;;12.80;95.48
23118;BME280;11728;50.624;6.014;2023-04-23T06:16:55;97478.41;;;12.94;95.04
23118;BME280;11728;50.624;6.014;2023-04-23T06:22:16;97473.41;;;13.06;94.71
23118;BME280;11728;50.624;6.014;2023-04-23T06:27:37;97469.69;;;13.28;94.36
23118;BME280;11728;50.624;6.014;2023-04-23T06:32:58;97463.38;;;13.68;92.99
23118;BME280;11728;50.624;6.014;2023-04-23T06:38:18;97452.97;;;13.82;92.12
23118;BME280;11728;50.624;6.014;2023-04-23T06:43:42;97444.38;;;14.12;90.68
23118;BME280;11728;50.624;6.014;2023-04-23T06:49:03;97440.44;;;14.69;87.44
23118;BME280;11728;50.624;6.014;2023-04-23T06:54:24;97432.72;;;16.07;81.12
23118;BME280;11728;50.624;6.014;2023-04-23T06:59:45;97430.28;;;16.76;76.85
23118;BME280;11728;50.624;6.014;2023-04-23T07:05:06;97427.94;;;17.13;74.69
23118;BME280;11728;50.624;6.014;2023-04-23T07:10:27;97419.94;;;17.41;73.29
23118;BME280;11728;50.624;6.014;2023-04-23T07:15:48;97410.88;;;17.84;71.88
23118;BME280;11728;50.624;6.014;2023-04-23T07:21:08;97416.84;;;18.28;69.45
23118;BME280;11728;50.624;6.014;2023-04-23T07:26:29;97406.56;;;18.22;67.42
23118;BME280;11728;50.624;6.014;2023-04-23T07:31:50;97410.47;;;18.43;65.74
23118;BME280;11728;50.624;6.014;2023-04-23T07:37:11;97406.03;;;19.05;61.93
23118;BME280;11728;50.624;6.014;2023-04-23T07:42:31;97395.97;;;19.21;61.11
23118;BME280;11728;50.624;6.014;2023-04-23T07:47:52;97396.47;;;20.22;60.33
23118;BME280;11728;50.624;6.014;2023-04-23T07:53:13;97399.78;;;20.60;57.54
23118;BME280;11728;50.624;6.014;2023-04-23T07:58:34;97378.88;;;20.53;54.83
23118;BME280;11728;50.624;6.014;2023-04-23T08:03:55;97379.63;;;20.89;53.82
23118;BME280;11728;50.624;6.014;2023-04-23T08:09:16;97371.94;;;20.85;52.04
23118;BME280;11728;50.624;6.014;2023-04-23T08:14:36;97373.06;;;21.26;51.29
23118;BME280;11728;50.624;6.014;2023-04-23T08:19:57;97369.25;;;21.39;50.00
23118;BME280;11728;50.624;6.014;2023-04-23T08:25:19;97372.09;;;22.13;49.04
23118;BME280;11728;50.624;6.014;2023-04-23T08:30:40;97371.81;;;21.73;48.57
23118;BME280;11728;50.624;6.014;2023-04-23T08:36:01;97374.09;;;22.00;47.60
23118;BME280;11728;50.624;6.014;2023-04-23T08:41:22;97373.25;;;21.88;47.72
23118;BME280;11728;50.624;6.014;2023-04-23T08:46:46;97375.47;;;21.83;47.53
23118;BME280;11728;50.624;6.014;2023-04-23T08:52:22;97367.91;;;21.45;47.16
23118;BME280;11728;50.624;6.014;2023-04-23T08:57:45;97369.38;;;21.05;47.73
23118;BME280;11728;50.624;6.014;2023-04-23T09:03:06;97378.88;;;20.18;49.18
23118;BME280;11728;50.624;6.014;2023-04-23T09:08:26;97371.38;;;19.52;49.55
23118;BME280;11728;50.624;6.014;2023-04-23T09:13:48;97364.72;;;19.22;50.58
23118;BME280;11728;50.624;6.014;2023-04-23T09:19:09;97354.53;;;18.64;51.54
23118;BME280;11728;50.624;6.014;2023-04-23T09:24:33;97354.44;;;18.66;51.93
23118;BME280;11728;50.624;6.014;2023-04-23T09:29:53;97360.78;;;18.65;52.36
23118;BME280;11728;50.624;6.014;2023-04-23T09:35:17;97364.50;;;19.00;51.39
23118;BME280;11728;50.624;6.014;2023-04-23T09:40:41;97355.94;;;18.82;51.74
23118;BME280;11728;50.624;6.014;2023-04-23T09:46:01;97360.63;;;18.42;50.56
23118;BME280;11728;50.624;6.014;2023-04-23T09:51:24;97344.81;;;18.63;51.19
23118;BME280;11728;50.624;6.014;2023-04-23T09:56:48;97341.16;;;18.64;50.64
23118;BME280;11728;50.624;6.014;2023-04-23T10:02:10;97344.06;;;18.74;50.52
23118;BME280;11728;50.624;6.014;2023-04-23T10:07:31;97339.84;;;18.33;51.41
23118;BME280;11728;50.624;6.014;2023-04-23T10:12:52;97330.47;;;18.64;51.04
23118;BME280;11728;50.624;6.014;2023-04-23T10:18:18;97317.13;;;19.37;50.33
23118;BME280;11728;50.624;6.014;2023-04-23T10:23:41;97323.00;;;19.66;49.21
23118;BME280;11728;50.624;6.014;2023-04-23T10:29:04;97322.75;;;18.97;48.64
23118;BME280;11728;50.624;6.014;2023-04-23T10:34:30;97309.63;;;19.30;48.04
23118;BME280;11728;50.624;6.014;2023-04-23T10:39:54;97302.19;;;18.98;47.42
23118;BME280;11728;50.624;6.014;2023-04-23T10:45:17;97302.56;;;19.29;47.52
23118;BME280;11728;50.624;6.014;2023-04-23T10:50:37;97295.13;;;19.45;46.84
23118;BME280;11728;50.624;6.014;2023-04-23T10:56:05;97273.88;;;20.46;44.54
23118;BME280;11728;50.624;6.014;2023-04-23T11:01:27;97275.59;;;20.69;43.52
23118;BME280;11728;50.624;6.014;2023-04-23T11:06:57;97255.59;;;21.28;41.93
23118;BME280;11728;50.624;6.014;2023-04-23T11:23:06;97220.50;;;22.84;39.77
23118;BME280;11728;50.624;6.014;2023-04-23T11:28:28;97221.16;;;23.07;39.38
23118;BME280;11728;50.624;6.014;2023-04-23T11:33:50;97209.94;;;22.72;39.18
23118;BME280;11728;50.624;6.014;2023-04-23T11:39:11;97200.03;;;23.79;37.35
23118;BME280;11728;50.624;6.014;2023-04-23T11:44:32;97189.06;;;23.33;36.46
23118;BME280;11728;50.624;6.014;2023-04-23T11:49:53;97178.63;;;21.80;38.11
23118;BME280;11728;50.624;6.014;2023-04-23T11:55:14;97177.03;;;22.98;37.22
23118;BME280;11728;50.624;6.014;2023-04-23T12:00:36;97176.41;;;23.25;37.26
23118;BME280;11728;50.624;6.014;2023-04-23T12:05:57;97148.97;;;22.61;37.04
23118;BME280;11728;50.624;6.014;2023-04-23T12:11:18;97150.75;;;21.61;38.58
23118;BME280;11728;50.624;6.014;2023-04-23T12:16:40;97122.13;;;22.21;37.44
23118;BME280;11728;50.624;6.014;2023-04-23T12:22:02;97123.34;;;22.07;37.89
23118;BME280;11728;50.624;6.014;2023-04-23T12:27:23;97115.47;;;20.70;39.64
23118;BME280;11728;50.624;6.014;2023-04-23T12:32:44;97113.38;;;20.62;40.16
23118;BME280;11728;50.624;6.014;2023-04-23T12:38:05;97093.69;;;20.19;41.17
23118;BME280;11728;50.624;6.014;2023-04-23T12:43:26;97096.56;;;19.95;41.57
23118;BME280;11728;50.624;6.014;2023-04-23T12:48:48;97106.53;;;19.71;42.20
23118;BME280;11728;50.624;6.014;2023-04-23T12:54:10;97089.66;;;19.13;42.71
23118;BME280;11728;50.624;6.014;2023-04-23T12:59:31;97078.94;;;18.66;43.89
23118;BME280;11728;50.624;6.014;2023-04-23T13:04:52;97072.56;;;18.56;44.94
23118;BME280;11728;50.624;6.014;2023-04-23T13:10:18;97068.06;;;18.33;45.95
23118;BME280;11728;50.624;6.014;2023-04-23T13:15:41;97065.34;;;17.85;46.78
23118;BME280;11728;50.624;6.014;2023-04-23T13:21:01;97062.56;;;17.74;47.54
23118;BME280;11728;50.624;6.014;2023-04-23T13:26:22;97054.41;;;17.88;47.33
23118;BME280;11728;50.624;6.014;2023-04-23T13:31:43;97039.41;;;17.74;47.63
23118;BME280;11728;50.624;6.014;2023-04-23T13:37:04;97052.78;;;17.11;52.40
23118;BME280;11728;50.624;6.014;2023-04-23T13:42:28;97039.97;;;16.65;56.50
23118;BME280;11728;50.624;6.014;2023-04-23T13:47:49;97030.63;;;16.72;57.93
23118;BME280;11728;50.624;6.014;2023-04-23T13:53:10;97022.47;;;16.99;57.50
23118;BME280;11728;50.624;6.014;2023-04-23T13:58:31;97018.41;;;16.94;58.40
23118;BME280;11728;50.624;6.014;2023-04-23T14:03:52;97011.03;;;16.85;58.48
23118;BME280;11728;50.624;6.014;2023-04-23T14:09:13;97015.53;;;16.85;59.92
23118;BME280;11728;50.624;6.014;2023-04-23T14:14:34;97022.19;;;16.78;61.05
23118;BME280;11728;50.624;6.014;2023-04-23T14:19:54;97025.06;;;16.36;64.27
23118;BME280;11728;50.624;6.014;2023-04-23T14:25:24;97020.44;;;15.30;70.14
23118;BME280;11728;50.624;6.014;2023-04-23T14:30:46;97001.88;;;14.71;72.99
23118;BME280;11728;50.624;6.014;2023-04-23T14:36:07;96995.56;;;14.58;74.29
23118;BME280;11728;50.624;6.014;2023-04-23T14:41:28;96978.69;;;14.59;74.64
23118;BME280;11728;50.624;6.014;2023-04-23T14:46:48;96973.28;;;14.60;74.81
23118;BME280;11728;50.624;6.014;2023-04-23T14:52:10;96952.41;;;14.68;74.23
23118;BME280;11728;50.624;6.014;2023-04-23T14:57:31;96937.75;;;14.91;73.06
23118;BME280;11728;50.624;6.014;2023-04-23T15:02:52;96921.81;;;15.19;71.86
23118;BME280;11728;50.624;6.014;2023-04-23T15:08:12;96887.13;;;15.34;71.78
23118;BME280;11728;50.624;6.014;2023-04-23T15:19:13;96894.94;;;14.81;73.75
23118;BME280;11728;50.624;6.014;2023-04-23T15:24:33;96920.28;;;14.87;73.86
23118;BME280;11728;50.624;6.014;2023-04-23T15:29:55;96894.47;;;14.75;73.63
23118;BME280;11728;50.624;6.014;2023-04-23T15:35:17;96886.59;;;14.73;72.87
23118;BME280;11728;50.624;6.014;2023-04-23T15:40:37;96879.22;;;14.49;73.27
23118;BME280;11728;50.624;6.014;2023-04-23T15:46:01;96881.59;;;14.40;73.93
23118;BME280;11728;50.624;6.014;2023-04-23T15:51:22;96869.16;;;14.26;75.11
23118;BME280;11728;50.624;6.014;2023-04-23T15:56:43;96862.34;;;14.07;75.95
23118;BME280;11728;50.624;6.014;2023-04-23T16:02:04;96872.63;;;13.97;76.39
23118;BME280;11728;50.624;6.014;2023-04-23T16:07:25;96872.47;;;14.00;76.25
23118;BME280;11728;50.624;6.014;2023-04-23T16:12:45;96865.16;;;14.04;76.24
23118;BME280;11728;50.624;6.014;2023-04-23T16:18:08;96847.25;;;14.07;75.95
23118;BME280;11728;50.624;6.014;2023-04-23T16:23:28;96837.28;;;13.97;76.14
23118;BME280;11728;50.624;6.014;2023-04-23T16:28:50;96822.56;;;13.91;76.35
23118;BME280;11728;50.624;6.014;2023-04-23T16:34:11;96809.66;;;13.85;76.23
23118;BME280;11728;50.624;6.014;2023-04-23T16:39:32;96812.03;;;13.76;76.63
23118;BME280;11728;50.624;6.014;2023-04-23T16:44:53;96797.88;;;13.76;77.18
23118;BME280;11728;50.624;6.014;2023-04-23T16:50:14;96796.19;;;13.75;77.17
23118;BME280;11728;50.624;6.014;2023-04-23T16:55:35;96789.19;;;13.74;77.61
23118;BME280;11728;50.624;6.014;2023-04-23T17:00:58;96775.81;;;13.75;77.92
23118;BME280;11728;50.624;6.014;2023-04-23T17:06:30;96756.84;;;13.67;78.84
23118;BME280;11728;50.624;6.014;2023-04-23T17:11:51;96738.38;;;13.66;79.31
23118;BME280;11728;50.624;6.014;2023-04-23T17:17:12;96736.66;;;13.65;80.05
23118;BME280;11728;50.624;6.014;2023-04-23T17:22:33;96721.78;;;13.62;81.24
23118;BME280;11728;50.624;6.014;2023-04-23T17:27:54;96733.69;;;13.26;84.63
23118;BME280;11728;50.624;6.014;2023-04-23T17:33:19;96735.63;;;12.93;88.80
23118;BME280;11728;50.624;6.014;2023-04-23T17:38:40;96756.69;;;12.79;90.81
23118;BME280;11728;50.624;6.014;2023-04-23T17:44:01;96743.44;;;12.79;92.43
23118;BME280;11728;50.624;6.014;2023-04-23T17:49:22;96749.72;;;12.94;93.06
23118;BME280;11728;50.624;6.014;2023-04-23T17:54:43;96752.97;;;12.99;92.36
23118;BME280;11728;50.624;6.014;2023-04-23T18:00:05;96761.25;;;12.93;91.97
23118;BME280;11728;50.624;6.014;2023-04-23T18:05:29;96767.47;;;12.76;92.89
23118;BME280;11728;50.624;6.014;2023-04-23T18:10:50;96780.97;;;12.56;93.28
23118;BME280;11728;50.624;6.014;2023-04-23T18:16:11;96776.94;;;12.49;92.98
23118;BME280;11728;50.624;6.014;2023-04-23T18:21:32;96781.34;;;12.33;92.17
23118;BME280;11728;50.624;6.014;2023-04-23T18:26:53;96784.72;;;12.20;90.32
23118;BME280;11728;50.624;6.014;2023-04-23T18:32:14;96805.69;;;12.08;89.56
23118;BME280;11728;50.624;6.014;2023-04-23T18:37:37;96821.09;;;12.00;90.06
23118;BME280;11728;50.624;6.014;2023-04-23T18:43:01;96822.25;;;12.11;90.11
23118;BME280;11728;50.624;6.014;2023-04-23T18:48:38;96827.38;;;12.31;88.67
23118;BME280;11728;50.624;6.014;2023-04-23T18:54:00;96836.31;;;12.28;86.37
23118;BME280;11728;50.624;6.014;2023-04-23T18:59:21;96840.22;;;12.22;84.67
23118;BME280;11728;50.624;6.014;2023-04-23T19:04:42;96845.13;;;12.12;83.62
23118;BME280;11728;50.624;6.014;2023-04-23T19:10:03;96863.66;;;11.95;82.83
23118;BME280;11728;50.624;6.014;2023-04-23T19:15:24;96845.09;;;11.97;82.18
23118;BME280;11728;50.624;6.014;2023-04-23T19:20:45;96855.13;;;12.07;81.16
23118;BME280;11728;50.624;6.014;2023-04-23T19:26:06;96862.03;;;12.10;79.41
23118;BME280;11728;50.624;6.014;2023-04-23T19:31:27;96860.78;;;12.17;79.04
23118;BME280;11728;50.624;6.014;2023-04-23T19:36:49;96863.56;;;12.14;78.26
23118;BME280;11728;50.624;6.014;2023-04-23T19:42:10;96859.47;;;12.08;77.60
23118;BME280;11728;50.624;6.014;2023-04-23T19:47:31;96874.00;;;12.00;77.52
23118;BME280;11728;50.624;6.014;2023-04-23T19:52:53;96879.47;;;11.97;78.12
23118;BME280;11728;50.624;6.014;2023-04-23T19:58:13;96893.31;;;12.02;77.74
23118;BME280;11728;50.624;6.014;2023-04-23T20:03:35;96903.09;;;12.00;77.90
23118;BME280;11728;50.624;6.014;2023-04-23T20:08:56;96892.75;;;11.95;78.55
23118;BME280;11728;50.624;6.014;2023-04-23T20:14:43;96888.47;;;11.93;78.64
23118;BME280;11728;50.624;6.014;2023-04-23T20:20:04;96898.44;;;11.88;78.50
23118;BME280;11728;50.624;6.014;2023-04-23T20:25:26;96919.91;;;11.82;79.02
23118;BME280;11728;50.624;6.014;2023-04-23T20:30:46;96910.25;;;11.81;79.08
23118;BME280;11728;50.624;6.014;2023-04-23T20:36:08;96903.47;;;11.75;79.21
23118;BME280;11728;50.624;6.014;2023-04-23T20:41:31;96897.34;;;11.75;79.55
23118;BME280;11728;50.624;6.014;2023-04-23T20:46:55;96901.44;;;11.80;79.10
23118;BME280;11728;50.624;6.014;2023-04-23T20:52:23;96905.91;;;11.80;79.05
23118;BME280;11728;50.624;6.014;2023-04-23T20:57:44;96901.53;;;11.79;79.26
23118;BME280;11728;50.624;6.014;2023-04-23T21:03:05;96900.84;;;11.75;79.42
23118;BME280;11728;50.624;6.014;2023-04-23T21:08:26;96901.06;;;11.71;79.58
23118;BME280;11728;50.624;6.014;2023-04-23T21:13:46;96884.09;;;11.58;80.06
23118;BME280;11728;50.624;6.014;2023-04-23T21:19:07;96877.63;;;11.28;80.54
23118;BME280;11728;50.624;6.014;2023-04-23T21:24:28;96885.66;;;11.08;80.96
23118;BME280;11728;50.624;6.014;2023-04-23T21:29:49;96888.78;;;10.98;81.54
23118;BME280;11728;50.624;6.014;2023-04-23T21:35:10;96876.72;;;10.92;81.38
23118;BME280;11728;50.624;6.014;2023-04-23T21:40:31;96883.22;;;10.85;81.79
23118;BME280;11728;50.624;6.014;2023-04-23T21:45:53;96888.78;;;10.79;82.41
23118;BME280;11728;50.624;6.014;2023-04-23T21:51:14;96889.94;;;10.92;82.74
23118;BME280;11728;50.624;6.014;2023-04-23T21:56:35;96882.41;;;11.02;83.31
23118;BME280;11728;50.624;6.014;2023-04-23T22:01:56;96890.56;;;10.97;83.66
23118;BME280;11728;50.624;6.014;2023-04-23T22:07:17;96888.41;;;11.05;83.84
23118;BME280;11728;50.624;6.014;2023-04-23T22:12:40;96897.97;;;11.08;84.38
23118;BME280;11728;50.624;6.014;2023-04-23T22:18:01;96895.03;;;11.14;84.88
23118;BME280;11728;50.624;6.014;2023-04-23T22:23:22;96887.38;;;11.09;85.14
23118;BME280;11728;50.624;6.014;2023-04-23T22:28:43;96898.91;;;10.88;86.02
23118;BME280;11728;50.624;6.014;2023-04-23T22:34:04;96884.72;;;10.73;86.34
23118;BME280;11728;50.624;6.014;2023-04-23T22:39:24;96897.41;;;10.65;86.13
23118;BME280;11728;50.624;6.014;2023-04-23T22:44:45;96894.50;;;10.51;85.91
23118;BME280;11728;50.624;6.014;2023-04-23T22:50:06;96900.06;;;10.45;85.74
23118;BME280;11728;50.624;6.014;2023-04-23T22:55:28;96907.22;;;10.43;85.51
23118;BME280;11728;50.624;6.014;2023-04-23T23:00:49;96904.00;;;10.55;84.81
23118;BME280;11728;50.624;6.014;2023-04-23T23:06:09;96912.56;;;10.60;84.27
23118;BME280;11728;50.624;6.014;2023-04-23T23:11:31;96902.88;;;10.60;84.15
23118;BME280;11728;50.624;6.014;2023-04-23T23:16:52;96898.84;;;10.72;83.82
23118;BME280;11728;50.624;6.014;2023-04-23T23:22:13;96901.47;;;10.72;83.72
23118;BME280;11728;50.624;6.014;2023-04-23T23:27:34;96913.09;;;10.68;83.76
23118;BME280;11728;50.624;6.014;2023-04-23T23:32:55;96897.31;;;10.66;83.67
23118;BME280;11728;50.624;6.014;2023-04-23T23:38:16;96916.81;;;10.64;83.69
23118;BME280;11728;50.624;6.014;2023-04-23T23:43:37;96908.09;;;10.62;84.30
23118;BME280;11728;50.624;6.014;2023-04-23T23:48:58;96912.28;;;10.66;83.00
23118;BME280;11728;50.624;6.014;2023-04-23T23:54:19;96923.91;;;10.62;82.51
23118;BME280;11728;50.624;6.014;2023-04-23T23:59:39;96927.88;;;10.52;82.03
